Thursday, March 30, 2017, 2:23 PM EDT

KPTB, Petersburg, Dinwiddie County Airport

Location: Petersburg, VA, United States Lat: 37.183
Local Time: 2:23 PM EDT (18:23 GMT) Lon: -77.517
Time Zone: US/Eastern Elev: 193 ft

Show me the last for .
Show Decoded

2017-03-30 13:55 METAR KPTB 301755Z AUTO 10004KT 10SM OVC046 14/05 A3016 RMK AO2 T01350048 10137
                 20084 =
2017-03-30 13:35 METAR KPTB 301735Z AUTO 12006KT 10SM OVC048 13/05 A3017 RMK AO2 T01330048 =
2017-03-30 13:15 METAR KPTB 301715Z AUTO 11003KT 10SM OVC048 13/05 A3018 RMK AO2 T01290047 =
2017-03-30 12:55 METAR KPTB 301655Z AUTO 14003KT 10SM OVC048 13/05 A3020 RMK AO2 T01260046 =
2017-03-30 12:35 METAR KPTB 301635Z AUTO 09007KT 10SM OVC048 13/04 A3020 RMK AO2 T01250044 =
2017-03-30 12:15 METAR KPTB 301615Z AUTO 00000KT 10SM OVC048 12/04 A3021 RMK AO2 T01220044 =
2017-03-30 11:55 METAR KPTB 301555Z AUTO 13007KT 080V140 10SM OVC048 12/05 A3022 RMK AO2
                 T01200046 =
2017-03-30 11:35 METAR KPTB 301535Z AUTO 07005KT 10SM OVC050 11/04 A3023 RMK AO2 LTG DSNT NW
                 T01100044 =
2017-03-30 11:15 METAR KPTB 301515Z AUTO 08003KT 10SM OVC050 10/04 A3023 RMK AO2 T01040041 =
2017-03-30 10:55 METAR KPTB 301455Z AUTO 08006KT 10SM OVC050 10/04 A3024 RMK AO2 T01000039 =
2017-03-30 10:35 METAR KPTB 301435Z AUTO 08003KT 10SM OVC050 10/04 A3024 RMK AO2 T01010039 =
2017-03-30 10:15 METAR KPTB 301415Z AUTO 08007KT 10SM OVC050 10/04 A3024 RMK AO2 T00980036 =
2017-03-30 09:55 METAR KPTB 301355Z AUTO 07006KT 10SM OVC050 10/03 A3023 RMK AO2 T00970034 =
2017-03-30 09:35 METAR KPTB 301335Z AUTO 07007KT 10SM OVC050 09/04 A3023 RMK AO2 T00920036 =
2017-03-30 09:15 METAR KPTB 301315Z AUTO 06008KT 10SM OVC050 09/04 A3024 RMK AO2 T00900036 =
2017-03-30 08:55 METAR KPTB 301255Z AUTO 08007KT 10SM OVC060 09/04 A3024 RMK AO2 T00870037 =
2017-03-30 08:35 METAR KPTB 301235Z AUTO 06005KT 10SM OVC060 09/05 A3024 RMK AO2 T00870049 =
2017-03-30 08:15 METAR KPTB 301215Z AUTO 04005KT 10SM OVC060 09/07 A3023 RMK AO2 T00850065 =
2017-03-30 07:55 METAR KPTB 301155Z AUTO 03006KT 7SM OVC060 08/07 A3023 RMK AO2 T00830070 10083
                 20042 =
2017-03-30 07:35 METAR KPTB 301135Z AUTO 04005KT 10SM OVC060 08/07 A3022 RMK AO2 T00810070 =
2017-03-30 07:15 METAR KPTB 301115Z AUTO 04004KT 10SM OVC060 08/07 A3021 RMK AO2 T00800068 =
2017-03-30 06:55 METAR KPTB 301055Z AUTO 03003KT 10SM BKN060 OVC080 08/07 A3021 RMK AO2 T00780066
                 =
2017-03-30 06:35 METAR KPTB 301035Z AUTO 02003KT 10SM SCT060 OVC080 08/07 A3020 RMK AO2 T00760065
                 =
2017-03-30 06:15 METAR KPTB 301015Z AUTO 04003KT 10SM SCT060 OVC080 07/07 A3019 RMK AO2 T00730066
                 =
2017-03-30 05:55 METAR KPTB 300955Z AUTO 00000KT 10SM SCT060 OVC080 07/06 A3018 RMK AO2 T00650060
                 =
2017-03-30 05:35 METAR KPTB 300935Z AUTO 00000KT 10SM SCT060 OVC080 07/06 A3019 RMK AO2 T00650057
                 =
2017-03-30 05:15 METAR KPTB 300915Z AUTO 00000KT 10SM OVC080 06/06 A3018 RMK AO2 T00630057 =
2017-03-30 04:55 METAR KPTB 300855Z AUTO 00000KT 10SM OVC080 06/06 A3017 RMK AO2 T00620055 =
2017-03-30 04:35 METAR KPTB 300835Z AUTO 00000KT 10SM OVC080 06/05 A3017 RMK AO2 T00590051 =
2017-03-30 04:15 METAR KPTB 300815Z AUTO 00000KT 10SM SCT065 OVC080 06/05 A3017 RMK AO2 T00570051
                 =
2017-03-30 03:55 METAR KPTB 300755Z AUTO 00000KT 10SM SCT065 OVC080 05/05 A3017 RMK AO2 T00520046
                 =
2017-03-30 03:35 METAR KPTB 300735Z AUTO 00000KT 10SM SCT065 BKN080 05/04 A3018 RMK AO2 T00450039
                 =
2017-03-30 03:15 METAR KPTB 300715Z AUTO 00000KT 10SM BKN080 05/04 A3017 RMK AO2 T00450038 =
2017-03-30 02:55 METAR KPTB 300655Z AUTO 00000KT 10SM OVC080 05/05 A3017 RMK AO2 T00540047 =
2017-03-30 02:35 METAR KPTB 300635Z AUTO 00000KT 10SM OVC080 05/05 A3017 RMK AO2 T00510045 =
2017-03-30 02:15 METAR KPTB 300615Z AUTO 00000KT 10SM OVC080 05/04 A3017 RMK AO2 T00490042 =
2017-03-30 01:55 METAR KPTB 300555Z AUTO 00000KT 10SM SCT080 04/04 A3018 RMK AO2 T00430038 10134
                 20042 =
2017-03-30 01:35 METAR KPTB 300535Z AUTO 00000KT 10SM CLR 05/04 A3018 RMK AO2 T00460041 =
2017-03-30 01:15 METAR KPTB 300515Z AUTO 00000KT 10SM CLR 05/04 A3018 RMK AO2 T00460040 =
2017-03-30 00:55 METAR KPTB 300455Z AUTO 00000KT 10SM CLR 06/05 A3018 RMK AO2 T00550048 402050053
                 =
2017-03-30 00:35 METAR KPTB 300435Z AUTO 00000KT 10SM CLR 06/05 A3018 RMK AO2 T00600051 =
2017-03-30 00:15 METAR KPTB 300415Z AUTO 00000KT 10SM CLR 06/05 A3017 RMK AO2 T00600053 =
2017-03-29 23:55 METAR KPTB 300355Z AUTO 00000KT 10SM CLR 06/05 A3017 RMK AO2 T00600046 =
2017-03-29 23:35 METAR KPTB 300335Z AUTO 00000KT 10SM CLR 07/06 A3017 RMK AO2 T00680061 =
2017-03-29 23:15 METAR KPTB 300315Z AUTO 00000KT 10SM CLR 07/06 A3017 RMK AO2 T00700055 =
2017-03-29 22:55 METAR KPTB 300255Z AUTO 00000KT 10SM CLR 09/06 A3018 RMK AO2 T00850061 =
2017-03-29 22:35 METAR KPTB 300235Z AUTO 00000KT 10SM CLR 10/07 A3016 RMK AO2 T01020066 =
2017-03-29 22:15 METAR KPTB 300215Z AUTO 12003KT 10SM CLR 11/07 A3016 RMK AO2 T01070070 =
2017-03-29 21:55 METAR KPTB 300155Z AUTO 00000KT 10SM CLR 12/07 A3016 RMK AO2 T01150071 =
2017-03-29 21:35 METAR KPTB 300135Z AUTO 09004KT 10SM CLR 13/08 A3016 RMK AO2 T01260077 =
2017-03-29 21:15 METAR KPTB 300115Z AUTO 09005KT 10SM CLR 13/08 A3014 RMK AO2 T01300082 =
2017-03-29 20:55 METAR KPTB 300055Z AUTO 10007KT 10SM CLR 13/08 A3013 RMK AO2 T01320083 =
2017-03-29 20:35 METAR KPTB 300035Z AUTO 00000KT 10SM CLR 10/09 A3011 RMK AO2 T01000085 =
2017-03-29 20:15 METAR KPTB 300015Z AUTO 00000KT 10SM CLR 11/09 A3011 RMK AO2 T01100087 =
2017-03-29 19:55 METAR KPTB 292355Z AUTO 00000KT 10SM CLR 12/09 A3011 RMK AO2 T01200087 10205
                 20120 =
2017-03-29 19:35 METAR KPTB 292335Z AUTO 00000KT 10SM CLR 14/09 A3011 RMK AO2 T01390085 =
2017-03-29 19:15 METAR KPTB 292315Z AUTO 00000KT 10SM CLR 16/08 A3010 RMK AO2 T01620082 =
2017-03-29 18:55 METAR KPTB 292255Z AUTO 06004KT 10SM CLR 18/07 A3010 RMK AO2 T01810069 =
2017-03-29 18:35 METAR KPTB 292235Z AUTO 05006KT 10SM CLR 19/07 A3008 RMK AO2 T01860066 =
2017-03-29 18:15 METAR KPTB 292215Z AUTO 06007KT 10SM SCT050 19/07 A3008 RMK AO2 T01860071 =
2017-03-29 17:55 METAR KPTB 292155Z AUTO 04004KT 10SM SCT050 19/07 A3008 RMK AO2 T01890069 =
2017-03-29 17:35 METAR KPTB 292135Z AUTO 01007KT 10SM SCT050 20/07 A3007 RMK AO2 T01950072 =
2017-03-29 17:15 METAR KPTB 292115Z AUTO 04007KT 10SM SCT048 SCT055 20/07 A3006 RMK AO2 T01990070
                 =
2017-03-29 16:55 METAR KPTB 292055Z AUTO 34003KT 10SM SCT047 BKN055 20/08 A3006 RMK AO2 T02020075
                 =
2017-03-29 16:35 METAR KPTB 292035Z AUTO 03006G14KT 10SM BKN047 BKN055 20/08 A3007 RMK AO2
                 T02030081 =
2017-03-29 16:15 METAR KPTB 292015Z AUTO 06005KT 10SM SCT044 SCT050 20/08 A3006 RMK AO2 T01950076
                 =
2017-03-29 15:55 METAR KPTB 291955Z AUTO 36006KT 10SM SCT050 20/09 A3006 RMK AO2 T01990085 =
2017-03-29 15:35 METAR KPTB 291935Z AUTO 01006KT 10SM SCT044 SCT050 19/09 A3006 RMK AO2 T01940085
                 =
2017-03-29 15:15 METAR KPTB 291915Z AUTO 35006KT 10SM SCT044 BKN050 19/08 A3006 RMK AO2 T01930084
                 =
2017-03-29 14:55 METAR KPTB 291855Z AUTO 05005KT 10SM SCT042 OVC050 19/09 A3008 RMK AO2 T01860090
                 =
2017-03-29 14:35 METAR KPTB 291835Z AUTO 02003KT 10SM SCT042 BKN049 OVC055 20/09 A3008 RMK AO2
                 T01950087 =

Support USWX by starting your Amazon purchase here.